Terminal Aerodrome Forecast
Issued by NWS

Current Version | Previous Version | Text Only | Print | Product List | Glossary On
Versions: 1 2 3 4 5 6 7 8 9
878
FTAK31 PAJN 232330
TAFAKT
TAF
PAKT 232330Z 2400/2424 13012KT P6SM VCSH OVC080
     FM240200 13009KT P6SM VCSH FEW050 OVC070
     FM241000 15006KT P6SM VCSH BKN030 OVC040
     FM242000 10007KT P6SM FEW050 OVC080
      AMD LTD TO CLD VIS AND WIND 2406/2415=

USA.gov is the U.S. government's official web portal to all federal, state and local government web resources and services.